Time;durP1;ratioP1;P1;durP2;ratioP2;P2;SDS_P1;SDS_P2;PMS_P1;PMS_P2;Temp;Humidity;BMP_temperature;BMP_pressure;BME280_temperature;BME280_humidity;BME280_pressure;Samples;Min_cycle;Max_cycle;Signal;HPM_P1;HPM_P2
2024/01/24 00:00:46;;;;;;;4.35;2.45;;;;;;;;;;5076127;28;20443;-66
2024/01/24 00:03:13;;;;;;;6.53;2.23;;;;;;;;;;5076110;28;20201;-67
2024/01/24 00:05:40;;;;;;;10.50;3.60;;;;;;;;;;5075970;28;20447;-67
2024/01/24 00:08:07;;;;;;;6.47;2.67;;;;;;;;;;5075948;28;20784;-67
2024/01/24 00:10:34;;;;;;;6.13;2.13;;;;;;;;;;5075858;28;20444;-67
2024/01/24 00:13:03;;;;;;;6.50;2.60;;;;;;;;;;5075700;28;20803;-67
2024/01/24 00:15:29;;;;;;;7.37;2.40;;;;;;;;;;5075818;28;20574;-67
2024/01/24 00:17:56;;;;;;;6.93;2.83;;;;;;;;;;5075905;28;20476;-67
2024/01/24 00:20:23;;;;;;;8.77;2.50;;;;;;;;;;5075565;28;20911;-67
2024/01/24 00:22:50;;;;;;;9.47;2.30;;;;;;;;;;5075843;28;20191;-67
2024/01/24 00:25:17;;;;;;;9.90;2.10;;;;;;;;;;5075466;28;20521;-67
2024/01/24 00:27:45;;;;;;;7.85;2.25;;;;;;;;;;5075731;28;20444;-66
2024/01/24 00:30:13;;;;;;;8.80;2.93;;;;;;;;;;5075624;28;20228;-67
2024/01/24 00:32:40;;;;;;;3.28;2.08;;;;;;;;;;5075558;28;20806;-67
2024/01/24 00:35:08;;;;;;;5.93;2.20;;;;;;;;;;5075407;28;20227;-66
2024/01/24 00:37:35;;;;;;;6.27;2.00;;;;;;;;;;5075409;28;20506;-67
2024/01/24 00:40:02;;;;;;;9.70;2.80;;;;;;;;;;5075222;28;20964;-67
2024/01/24 00:42:29;;;;;;;3.87;1.70;;;;;;;;;;5075217;28;20474;-67
2024/01/24 00:44:56;;;;;;;9.20;2.43;;;;;;;;;;5075444;28;20447;-67
2024/01/24 00:47:25;;;;;;;7.18;1.88;;;;;;;;;;5075259;28;20538;-67
2024/01/24 00:49:52;;;;;;;7.10;2.20;;;;;;;;;;5075170;28;20275;-67
2024/01/24 00:52:18;;;;;;;4.95;1.67;;;;;;;;;;5075159;28;20189;-67
2024/01/24 00:54:45;;;;;;;4.47;1.20;;;;;;;;;;5074861;28;20221;-67
2024/01/24 00:57:12;;;;;;;5.47;1.77;;;;;;;;;;5075185;28;20444;-67
2024/01/24 00:59:39;;;;;;;7.13;3.60;;;;;;;;;;5073854;28;20304;-67
2024/01/24 01:02:06;;;;;;;6.60;1.80;;;;;;;;;;5075251;28;20443;-67
2024/01/24 01:04:35;;;;;;;8.20;2.40;;;;;;;;;;5074915;28;20465;-67
2024/01/24 01:07:02;;;;;;;3.57;1.87;;;;;;;;;;5074691;28;20185;-67
2024/01/24 01:09:29;;;;;;;6.93;1.92;;;;;;;;;;5074974;28;20475;-67
2024/01/24 01:11:56;;;;;;;3.00;1.70;;;;;;;;;;5074855;28;20556;-67
2024/01/24 01:14:23;;;;;;;10.03;2.30;;;;;;;;;;5074654;28;20471;-67
2024/01/24 01:16:50;;;;;;;3.50;1.90;;;;;;;;;;5074674;28;20447;-67
2024/01/24 01:19:17;;;;;;;7.53;1.93;;;;;;;;;;5074557;28;20534;-67
2024/01/24 01:21:45;;;;;;;4.13;1.77;;;;;;;;;;5074687;28;20539;-67
2024/01/24 01:24:12;;;;;;;4.17;1.70;;;;;;;;;;5074579;28;20440;-67
2024/01/24 01:26:39;;;;;;;3.90;2.00;;;;;;;;;;5074557;28;20447;-67
2024/01/24 01:29:06;;;;;;;8.63;1.77;;;;;;;;;;5074462;28;20440;-67
2024/01/24 01:31:33;;;;;;;11.23;2.00;;;;;;;;;;5074328;28;20527;-67
2024/01/24 01:34:00;;;;;;;4.10;1.50;;;;;;;;;;5074182;28;20855;-67
2024/01/24 01:36:27;;;;;;;4.93;1.37;;;;;;;;;;5074409;28;20446;-67
2024/01/24 01:38:56;;;;;;;2.50;1.40;;;;;;;;;;5074313;28;20450;-67
2024/01/24 01:41:24;;;;;;;2.80;1.50;;;;;;;;;;5074224;28;20899;-66
2024/01/24 01:43:51;;;;;;;3.93;1.60;;;;;;;;;;5074105;28;20475;-67
2024/01/24 01:46:19;;;;;;;4.85;1.42;;;;;;;;;;5074042;28;20456;-67
2024/01/24 01:48:46;;;;;;;2.63;1.60;;;;;;;;;;5073921;28;20212;-67
2024/01/24 01:51:13;;;;;;;2.42;1.10;;;;;;;;;;5074090;28;20266;-67
2024/01/24 01:53:40;;;;;;;6.83;1.70;;;;;;;;;;5073993;28;20200;-67
2024/01/24 01:56:10;;;;;;;4.20;1.43;;;;;;;;;;5073800;28;20482;-67
2024/01/24 01:58:37;;;;;;;5.40;1.47;;;;;;;;;;5073834;28;20998;-67
2024/01/24 02:01:05;;;;;;;1.23;1.10;;;;;;;;;;5073624;28;20451;-67
2024/01/24 02:03:32;;;;;;;8.13;1.33;;;;;;;;;;5073889;28;20451;-67
2024/01/24 02:05:59;;;;;;;2.97;1.70;;;;;;;;;;5073752;28;20444;-67
2024/01/24 02:08:27;;;;;;;6.10;1.60;;;;;;;;;;5073558;28;20526;-66
2024/01/24 02:10:54;;;;;;;1.13;1.00;;;;;;;;;;5073513;28;20451;-66
2024/01/24 02:13:22;;;;;;;1.70;1.13;;;;;;;;;;5073505;28;20446;-67
2024/01/24 02:15:49;;;;;;;2.17;1.20;;;;;;;;;;5073313;28;20571;-67
2024/01/24 02:18:16;;;;;;;3.40;1.30;;;;;;;;;;5073794;28;20450;-67
2024/01/24 02:20:43;;;;;;;1.23;1.07;;;;;;;;;;5073443;28;20929;-67
2024/01/24 02:23:11;;;;;;;3.37;1.03;;;;;;;;;;5073390;28;20543;-67
2024/01/24 02:25:39;;;;;;;1.57;1.10;;;;;;;;;;5073382;28;20545;-67
2024/01/24 02:28:06;;;;;;;2.60;1.23;;;;;;;;;;5073303;28;20890;-66
2024/01/24 02:30:33;;;;;;;2.17;1.10;;;;;;;;;;5073210;28;20527;-67
2024/01/24 02:33:00;;;;;;;1.73;1.20;;;;;;;;;;5073384;28;20526;-66
2024/01/24 02:35:28;;;;;;;3.43;0.87;;;;;;;;;;5073281;28;20509;-66
2024/01/24 02:37:55;;;;;;;1.80;1.20;;;;;;;;;;5073228;28;20859;-67
2024/01/24 02:40:22;;;;;;;1.10;1.00;;;;;;;;;;5073150;28;20534;-66
2024/01/24 02:42:50;;;;;;;3.03;1.53;;;;;;;;;;5073070;28;20508;-66
2024/01/24 02:45:17;;;;;;;1.87;1.00;;;;;;;;;;5073222;28;20453;-66
2024/01/24 02:47:44;;;;;;;1.10;1.00;;;;;;;;;;5073150;28;20526;-66
2024/01/24 02:50:12;;;;;;;1.97;0.90;;;;;;;;;;5073390;28;20447;-67
2024/01/24 02:52:39;;;;;;;1.30;1.20;;;;;;;;;;5073008;28;20526;-67
2024/01/24 02:55:05;;;;;;;1.83;1.33;;;;;;;;;;5073006;28;20558;-67
2024/01/24 02:57:32;;;;;;;3.93;1.37;;;;;;;;;;5072817;28;20464;-67
2024/01/24 03:00:01;;;;;;;2.20;1.17;;;;;;;;;;5073118;28;20439;-66
2024/01/24 03:02:28;;;;;;;2.60;1.20;;;;;;;;;;5073010;28;20530;-67
2024/01/24 03:04:54;;;;;;;1.33;1.00;;;;;;;;;;5072955;28;20443;-67
2024/01/24 03:07:21;;;;;;;1.20;1.10;;;;;;;;;;5072933;28;20443;-67
2024/01/24 03:09:48;;;;;;;2.70;1.30;;;;;;;;;;5072777;28;20482;-67
2024/01/24 03:12:15;;;;;;;2.30;1.20;;;;;;;;;;5072980;28;20534;-67
2024/01/24 03:14:42;;;;;;;1.40;1.30;;;;;;;;;;5072849;28;20449;-67
2024/01/24 03:17:10;;;;;;;3.07;1.47;;;;;;;;;;5072742;28;20939;-67
2024/01/24 03:19:37;;;;;;;1.20;1.10;;;;;;;;;;5072791;28;20566;-67
2024/01/24 03:22:05;;;;;;;3.33;1.50;;;;;;;;;;5073839;28;20447;-67
2024/01/24 03:24:31;;;;;;;2.40;1.33;;;;;;;;;;5076677;28;20530;-67
2024/01/24 03:26:58;;;;;;;3.00;1.70;;;;;;;;;;5076887;28;20443;-67
2024/01/24 03:29:25;;;;;;;1.80;1.27;;;;;;;;;;5076947;28;20848;-67
2024/01/24 03:31:52;;;;;;;1.93;1.30;;;;;;;;;;5076975;28;20534;-67
2024/01/24 03:34:20;;;;;;;4.10;1.60;;;;;;;;;;5076587;28;20602;-67
2024/01/24 03:36:47;;;;;;;3.80;1.40;;;;;;;;;;5076455;28;20846;-67
2024/01/24 03:39:14;;;;;;;1.50;1.20;;;;;;;;;;5076310;28;20449;-67
2024/01/24 03:41:41;;;;;;;1.53;1.20;;;;;;;;;;5076581;28;20454;-67
2024/01/24 03:44:08;;;;;;;3.03;1.23;;;;;;;;;;5076493;28;20443;-67
2024/01/24 03:46:35;;;;;;;5.50;2.27;;;;;;;;;;5076405;28;20876;-67
2024/01/24 03:49:02;;;;;;;1.83;1.20;;;;;;;;;;5076576;28;20530;-66
2024/01/24 03:51:31;;;;;;;3.87;1.43;;;;;;;;;;5076158;28;20811;-67
2024/01/24 03:53:57;;;;;;;1.87;1.27;;;;;;;;;;5076389;28;20451;-67
2024/01/24 03:56:25;;;;;;;3.30;1.30;;;;;;;;;;5076241;28;20574;-67
2024/01/24 03:58:52;;;;;;;2.17;1.23;;;;;;;;;;5076265;28;20815;-67
2024/01/24 04:01:19;;;;;;;2.30;1.50;;;;;;;;;;5076084;28;20530;-67
2024/01/24 04:03:46;;;;;;;3.30;1.30;;;;;;;;;;5075971;28;20549;-67
2024/01/24 04:06:13;;;;;;;3.10;1.40;;;;;;;;;;5075878;28;20508;-67
2024/01/24 04:08:41;;;;;;;2.20;1.40;;;;;;;;;;5071605;28;20535;-67
2024/01/24 04:11:08;;;;;;;2.00;1.80;;;;;;;;;;5068111;28;20961;-67
2024/01/24 04:13:35;;;;;;;4.10;1.80;;;;;;;;;;5059922;28;20527;-67
2024/01/24 04:16:02;;;;;;;2.57;1.53;;;;;;;;;;5065350;28;20474;-67
2024/01/24 04:18:29;;;;;;;4.37;1.63;;;;;;;;;;5066237;28;20455;-67
2024/01/24 04:20:56;;;;;;;2.60;1.40;;;;;;;;;;5061332;28;20478;-67
2024/01/24 04:23:23;;;;;;;5.20;2.90;;;;;;;;;;5064540;28;20448;-67
2024/01/24 04:25:52;;;;;;;4.60;1.40;;;;;;;;;;5063599;28;20879;-67
2024/01/24 04:28:18;;;;;;;4.43;1.63;;;;;;;;;;5067267;28;20444;-67
2024/01/24 04:30:45;;;;;;;3.33;1.57;;;;;;;;;;5062472;28;20451;-67
2024/01/24 04:33:14;;;;;;;2.60;1.60;;;;;;;;;;5065535;28;20990;-67
2024/01/24 04:35:41;;;;;;;2.50;1.80;;;;;;;;;;5061725;28;20475;-67
2024/01/24 04:38:08;;;;;;;3.47;1.80;;;;;;;;;;5062754;28;20484;-67
2024/01/24 04:40:35;;;;;;;3.57;1.73;;;;;;;;;;5063818;28;20503;-67
2024/01/24 04:43:03;;;;;;;4.73;1.70;;;;;;;;;;5062265;28;20963;-67
2024/01/24 04:45:30;;;;;;;1.63;1.53;;;;;;;;;;5060228;28;20501;-67
2024/01/24 04:47:57;;;;;;;5.80;1.80;;;;;;;;;;5052959;28;20445;-67
2024/01/24 04:50:24;;;;;;;1.67;1.57;;;;;;;;;;5052784;28;20967;-67
2024/01/24 04:52:51;;;;;;;2.23;1.77;;;;;;;;;;5053387;28;20535;-67
2024/01/24 04:55:18;;;;;;;3.63;1.63;;;;;;;;;;5052658;28;20444;-67
2024/01/24 04:57:46;;;;;;;4.10;1.60;;;;;;;;;;5054902;28;20452;-67
2024/01/24 05:00:14;;;;;;;3.50;1.43;;;;;;;;;;5054946;28;20539;-67
2024/01/24 05:02:41;;;;;;;2.23;1.40;;;;;;;;;;5055095;28;20519;-67
2024/01/24 05:05:08;;;;;;;2.57;1.80;;;;;;;;;;5055123;28;20447;-67
2024/01/24 05:07:35;;;;;;;6.30;1.70;;;;;;;;;;5054939;28;20440;-67
2024/01/24 05:10:03;;;;;;;2.90;1.50;;;;;;;;;;5054827;28;20540;-67
2024/01/24 05:12:30;;;;;;;2.60;1.47;;;;;;;;;;5054683;28;20934;-67
2024/01/24 05:14:57;;;;;;;1.83;1.50;;;;;;;;;;5054572;28;20440;-67
2024/01/24 05:17:25;;;;;;;5.00;1.60;;;;;;;;;;5054692;28;20538;-67
2024/01/24 05:19:52;;;;;;;4.73;1.50;;;;;;;;;;5054538;28;20559;-67
2024/01/24 05:22:19;;;;;;;1.70;1.33;;;;;;;;;;5054718;28;21030;-67
2024/01/24 05:24:46;;;;;;;2.80;1.50;;;;;;;;;;5054488;28;20447;-67
2024/01/24 05:27:13;;;;;;;2.37;1.60;;;;;;;;;;5054474;28;20481;-67
2024/01/24 05:29:41;;;;;;;1.40;1.30;;;;;;;;;;5054218;28;20999;-67
2024/01/24 05:32:08;;;;;;;2.53;1.53;;;;;;;;;;5054472;28;20450;-67
2024/01/24 05:34:36;;;;;;;3.03;1.67;;;;;;;;;;5054406;28;20502;-67
2024/01/24 05:37:03;;;;;;;3.20;1.50;;;;;;;;;;5054225;28;20484;-67
2024/01/24 05:39:30;;;;;;;1.83;1.50;;;;;;;;;;5054292;28;20483;-67
2024/01/24 05:41:57;;;;;;;5.53;3.70;;;;;;;;;;5054101;28;20461;-67
2024/01/24 05:44:24;;;;;;;2.30;1.40;;;;;;;;;;5053671;28;20481;-67
2024/01/24 05:46:51;;;;;;;1.60;1.30;;;;;;;;;;5054129;28;20555;-67
2024/01/24 05:49:19;;;;;;;1.50;1.37;;;;;;;;;;5054480;28;20451;-67
2024/01/24 05:51:47;;;;;;;1.53;1.43;;;;;;;;;;5054031;28;20539;-67
2024/01/24 05:54:14;;;;;;;2.67;1.53;;;;;;;;;;5053935;28;21031;-67
2024/01/24 05:56:41;;;;;;;2.17;1.33;;;;;;;;;;5053718;28;20578;-67
2024/01/24 05:59:08;;;;;;;1.70;1.60;;;;;;;;;;5054207;28;20480;-67
2024/01/24 06:01:36;;;;;;;4.40;1.30;;;;;;;;;;5053788;28;20527;-67
2024/01/24 06:04:03;;;;;;;1.97;1.20;;;;;;;;;;5054092;28;20489;-67
2024/01/24 06:06:30;;;;;;;1.27;1.00;;;;;;;;;;5053876;28;20535;-67
2024/01/24 06:08:59;;;;;;;2.83;1.23;;;;;;;;;;5053639;28;20447;-67
2024/01/24 06:11:25;;;;;;;0.80;0.80;;;;;;;;;;5053766;28;20535;-67
2024/01/24 06:13:52;;;;;;;4.03;1.10;;;;;;;;;;5053665;28;20444;-67
2024/01/24 06:16:19;;;;;;;5.53;1.40;;;;;;;;;;5053494;28;20472;-67
2024/01/24 06:18:47;;;;;;;1.90;1.13;;;;;;;;;;5053447;28;20886;-67
2024/01/24 06:21:14;;;;;;;1.83;1.20;;;;;;;;;;5053380;28;20883;-67
2024/01/24 06:23:41;;;;;;;3.57;1.30;;;;;;;;;;5053224;28;20451;-67
2024/01/24 06:26:09;;;;;;;3.40;1.23;;;;;;;;;;5053328;28;20451;-67
2024/01/24 06:28:36;;;;;;;1.20;1.00;;;;;;;;;;5053290;28;20535;-67
2024/01/24 06:31:03;;;;;;;2.00;1.23;;;;;;;;;;5053209;28;20543;-67
2024/01/24 06:33:30;;;;;;;1.40;1.00;;;;;;;;;;5053135;28;20440;-67
2024/01/24 06:35:57;;;;;;;1.10;1.00;;;;;;;;;;5053060;28;20472;-67
2024/01/24 06:38:25;;;;;;;2.80;1.00;;;;;;;;;;5053015;28;20851;-67
2024/01/24 06:40:52;;;;;;;2.97;1.17;;;;;;;;;;5053345;28;20448;-67
2024/01/24 06:43:20;;;;;;;1.60;1.10;;;;;;;;;;5053343;28;20531;-67
2024/01/24 06:45:47;;;;;;;1.00;0.90;;;;;;;;;;5052922;28;20848;-67
2024/01/24 06:48:14;;;;;;;1.63;0.90;;;;;;;;;;5052842;28;20433;-67
2024/01/24 06:50:41;;;;;;;1.10;0.70;;;;;;;;;;5052843;28;20801;-67
2024/01/24 06:53:10;;;;;;;1.43;0.93;;;;;;;;;;5052787;28;21006;-67
2024/01/24 06:55:37;;;;;;;1.97;1.20;;;;;;;;;;5052985;28;20519;-67
2024/01/24 06:58:05;;;;;;;1.97;1.00;;;;;;;;;;5052721;28;20487;-67
2024/01/24 07:00:33;;;;;;;8.17;2.93;;;;;;;;;;5052861;28;20459;-67
2024/01/24 07:03:00;;;;;;;2.83;0.80;;;;;;;;;;5052717;28;20882;-67
2024/01/24 07:05:27;;;;;;;2.50;1.07;;;;;;;;;;5052708;28;20943;-67
2024/01/24 07:07:54;;;;;;;1.80;1.40;;;;;;;;;;5052921;28;20452;-67
2024/01/24 07:10:21;;;;;;;1.87;1.20;;;;;;;;;;5052684;28;21003;-67
2024/01/24 07:12:49;;;;;;;1.20;0.90;;;;;;;;;;5052771;28;20531;-67
2024/01/24 07:15:16;;;;;;;2.13;0.80;;;;;;;;;;5052684;28;20452;-67
2024/01/24 07:17:45;;;;;;;1.37;0.80;;;;;;;;;;5052620;28;20480;-67
2024/01/24 07:20:13;;;;;;;1.90;0.80;;;;;;;;;;5052628;28;20499;-67
2024/01/24 07:22:39;;;;;;;3.10;1.13;;;;;;;;;;5052728;28;20451;-67
2024/01/24 07:25:07;;;;;;;0.90;0.80;;;;;;;;;;5052537;28;21006;-67
2024/01/24 07:27:35;;;;;;;1.23;0.90;;;;;;;;;;5052406;28;20828;-67
2024/01/24 07:30:04;;;;;;;1.30;0.80;;;;;;;;;;5052451;28;20786;-67
2024/01/24 07:32:31;;;;;;;1.60;0.80;;;;;;;;;;5052199;28;20531;-67
2024/01/24 07:34:59;;;;;;;4.33;1.10;;;;;;;;;;5052637;28;20467;-67
2024/01/24 07:37:26;;;;;;;4.50;1.00;;;;;;;;;;5052539;28;21085;-67
2024/01/24 07:39:54;;;;;;;4.30;1.10;;;;;;;;;;5052457;28;20535;-67
2024/01/24 07:42:21;;;;;;;1.93;1.33;;;;;;;;;;5052451;28;20445;-67
2024/01/24 07:44:48;;;;;;;3.50;1.10;;;;;;;;;;5052308;28;20450;-67
2024/01/24 07:47:15;;;;;;;3.13;1.30;;;;;;;;;;5052284;28;20452;-67
2024/01/24 07:49:42;;;;;;;2.80;1.10;;;;;;;;;;5052458;28;20444;-67
2024/01/24 07:52:10;;;;;;;1.97;1.23;;;;;;;;;;5052277;28;20862;-67
2024/01/24 07:54:37;;;;;;;6.27;1.47;;;;;;;;;;5052276;28;20539;-66
2024/01/24 07:57:04;;;;;;;9.70;1.57;;;;;;;;;;5052111;28;20472;-67
2024/01/24 07:59:32;;;;;;;7.20;1.77;;;;;;;;;;5052121;28;20875;-67
2024/01/24 08:01:58;;;;;;;4.40;1.30;;;;;;;;;;5052145;28;20440;-67
2024/01/24 08:04:26;;;;;;;2.23;1.43;;;;;;;;;;5052212;28;20856;-66
2024/01/24 08:06:52;;;;;;;5.47;1.87;;;;;;;;;;5052219;28;20470;-66
2024/01/24 08:09:21;;;;;;;4.67;2.53;;;;;;;;;;5058014;28;20446;-67
2024/01/24 08:11:48;;;;;;;5.57;3.00;;;;;;;;;;5075542;28;20538;-68
2024/01/24 08:14:19;;;;;;;3.60;1.97;;;;;;;;;;5075511;28;20530;-73
2024/01/24 08:16:59;;;;;;;8.10;2.63;;;;;;;;;;5075728;28;20479;-66
2024/01/24 08:19:26;;;;;;;4.30;1.73;;;;;;;;;;5075221;28;20455;-72
2024/01/24 08:21:54;;;;;;;4.47;2.10;;;;;;;;;;5075578;28;20538;-74
2024/01/24 08:24:22;;;;;;;6.30;2.30;;;;;;;;;;5075082;28;20443;-73
2024/01/24 08:27:05;;;;;;;5.43;1.90;;;;;;;;;;5090059;27;20505;-72
2024/01/24 08:29:32;;;;;;;7.90;2.10;;;;;;;;;;5070004;28;20450;-70
2024/01/24 08:31:59;;;;;;;4.23;2.13;;;;;;;;;;5069922;28;20534;-66
2024/01/24 08:34:26;;;;;;;4.13;1.60;;;;;;;;;;5070017;28;20530;-68
2024/01/24 08:36:52;;;;;;;14.57;2.30;;;;;;;;;;5069621;28;20878;-67
2024/01/24 08:39:19;;;;;;;4.97;1.67;;;;;;;;;;5069969;28;20528;-67
2024/01/24 08:41:46;;;;;;;5.73;1.97;;;;;;;;;;5069794;28;20927;-71
2024/01/24 08:44:15;;;;;;;7.70;1.80;;;;;;;;;;5069632;28;20474;-66
2024/01/24 08:46:43;;;;;;;4.93;2.80;;;;;;;;;;5069683;28;20893;-66
2024/01/24 08:49:12;;;;;;;5.73;1.90;;;;;;;;;;5069693;28;20534;-64
2024/01/24 08:51:39;;;;;;;9.10;2.17;;;;;;;;;;5069422;28;20530;-65
2024/01/24 08:54:06;;;;;;;9.60;2.53;;;;;;;;;;5069387;28;20537;-69
2024/01/24 08:56:33;;;;;;;9.97;2.30;;;;;;;;;;5069586;28;20284;-69
2024/01/24 08:59:00;;;;;;;5.30;1.90;;;;;;;;;;5069555;28;20862;-69
2024/01/24 09:01:28;;;;;;;9.70;2.60;;;;;;;;;;5069428;28;21016;-65
2024/01/24 09:03:56;;;;;;;3.43;2.07;;;;;;;;;;5069373;28;20895;-70
2024/01/24 09:06:25;;;;;;;3.10;1.30;;;;;;;;;;5069185;28;20529;-72
2024/01/24 09:08:52;;;;;;;5.63;1.80;;;;;;;;;;5069395;28;20447;-69
2024/01/24 09:11:19;;;;;;;10.70;2.00;;;;;;;;;;5069313;28;20535;-62
2024/01/24 09:13:47;;;;;;;6.30;1.90;;;;;;;;;;5069179;28;20543;-69
2024/01/24 09:16:14;;;;;;;6.30;1.60;;;;;;;;;;5069164;28;20440;-62
2024/01/24 09:18:42;;;;;;;5.53;1.33;;;;;;;;;;5068824;28;20502;-63
2024/01/24 09:21:09;;;;;;;4.70;1.40;;;;;;;;;;5068746;28;20542;-63
2024/01/24 09:23:36;;;;;;;5.50;2.17;;;;;;;;;;5069036;28;20475;-66
2024/01/24 09:26:03;;;;;;;11.77;2.87;;;;;;;;;;5056762;28;20514;-76
2024/01/24 09:28:30;;;;;;;5.53;1.50;;;;;;;;;;5049135;28;20487;-71
2024/01/24 09:30:57;;;;;;;5.07;1.50;;;;;;;;;;5056130;28;20443;-73
2024/01/24 09:33:24;;;;;;;3.60;1.63;;;;;;;;;;5068606;28;20538;-78
2024/01/24 09:35:52;;;;;;;8.33;1.93;;;;;;;;;;5068814;28;20459;-71
2024/01/24 09:38:19;;;;;;;6.47;1.63;;;;;;;;;;5055550;28;20498;-68
2024/01/24 09:40:46;;;;;;;7.40;2.17;;;;;;;;;;5055498;28;20444;-72
2024/01/24 09:43:14;;;;;;;6.43;1.70;;;;;;;;;;5055459;28;20535;-73
2024/01/24 09:45:43;;;;;;;11.50;1.60;;;;;;;;;;5055188;28;20467;-68
2024/01/24 09:48:11;;;;;;;12.33;2.67;;;;;;;;;;5055482;28;20448;-69
2024/01/24 09:50:38;;;;;;;6.40;2.67;;;;;;;;;;5055218;28;20531;-69
2024/01/24 09:53:09;;;;;;;9.83;2.00;;;;;;;;;;5055075;28;20475;-61
2024/01/24 09:55:36;;;;;;;7.70;2.00;;;;;;;;;;5055331;28;20846;-75
2024/01/24 09:58:03;;;;;;;8.53;2.60;;;;;;;;;;5055076;28;20954;-71
2024/01/24 10:00:30;;;;;;;9.80;1.97;;;;;;;;;;5055074;28;20536;-76
2024/01/24 10:02:57;;;;;;;6.10;1.73;;;;;;;;;;5055199;28;20531;-64
2024/01/24 10:05:26;;;;;;;8.63;1.80;;;;;;;;;;5055101;28;20805;-69
2024/01/24 10:07:53;;;;;;;10.47;1.70;;;;;;;;;;5055081;28;20463;-69
2024/01/24 10:10:21;;;;;;;3.53;1.97;;;;;;;;;;5054165;28;20448;-69
2024/01/24 10:12:49;;;;;;;6.10;1.50;;;;;;;;;;5054848;28;20998;-68
2024/01/24 10:15:16;;;;;;;6.07;2.37;;;;;;;;;;5054920;28;20450;-69
2024/01/24 10:17:43;;;;;;;5.57;1.60;;;;;;;;;;5054861;28;20494;-67
2024/01/24 10:20:11;;;;;;;5.80;2.60;;;;;;;;;;5054763;28;20536;-70
2024/01/24 10:22:39;;;;;;;8.00;1.60;;;;;;;;;;5050436;28;20808;-70
2024/01/24 10:25:09;;;;;;;4.80;1.90;;;;;;;;;;5054439;28;20472;-75
2024/01/24 10:27:38;;;;;;;5.20;2.03;;;;;;;;;;5054541;28;20450;-69
2024/01/24 10:30:09;;;;;;;9.67;2.30;;;;;;;;;;5054640;28;20498;-71
2024/01/24 10:32:37;;;;;;;8.60;2.40;;;;;;;;;;5054671;28;20531;-69
2024/01/24 10:35:04;;;;;;;12.27;2.50;;;;;;;;;;5054461;28;20452;-72
2024/01/24 10:37:31;;;;;;;7.17;2.00;;;;;;;;;;5054579;28;20444;-85
2024/01/24 10:39:59;;;;;;;7.50;2.80;;;;;;;;;;5054226;28;20505;-70
2024/01/24 10:42:29;;;;;;;10.67;3.00;;;;;;;;;;5054356;28;20475;-73
2024/01/24 10:44:59;;;;;;;9.50;3.30;;;;;;;;;;5054374;28;20475;-73
2024/01/24 10:47:26;;;;;;;10.80;2.83;;;;;;;;;;5054163;28;20570;-66
2024/01/24 10:49:53;;;;;;;11.00;3.53;;;;;;;;;;5053058;28;20452;-76
2024/01/24 10:52:20;;;;;;;15.90;3.20;;;;;;;;;;5053981;28;20445;-70
2024/01/24 10:54:47;;;;;;;9.20;2.83;;;;;;;;;;5053978;28;20539;-72
2024/01/24 10:57:14;;;;;;;9.60;3.67;;;;;;;;;;5053811;28;20932;-69
2024/01/24 10:59:43;;;;;;;7.47;2.57;;;;;;;;;;5054020;28;20498;-69
2024/01/24 11:02:12;;;;;;;9.47;2.60;;;;;;;;;;5053896;28;20865;-69
2024/01/24 11:04:39;;;;;;;8.77;2.10;;;;;;;;;;5053909;28;20451;-71
2024/01/24 11:07:09;;;;;;;8.50;2.23;;;;;;;;;;5053680;28;20516;-63
2024/01/24 11:09:38;;;;;;;9.20;2.97;;;;;;;;;;5053961;28;20555;-73
2024/01/24 11:12:06;;;;;;;10.03;2.07;;;;;;;;;;5053737;28;21027;-69
2024/01/24 11:14:34;;;;;;;12.20;3.10;;;;;;;;;;5053662;28;20510;-69
2024/01/24 11:17:01;;;;;;;13.60;3.63;;;;;;;;;;5053566;28;20446;-69
2024/01/24 11:19:30;;;;;;;14.13;3.70;;;;;;;;;;5052482;28;20448;-68
2024/01/24 11:22:00;;;;;;;11.37;2.93;;;;;;;;;;5053461;28;20194;-69
2024/01/24 11:24:48;;;;;;;12.80;2.87;;;;;;;;;;5053567;28;20448;-66
2024/01/24 11:27:25;;;;;;;12.33;3.00;;;;;;;;;;5053381;28;20488;-71
2024/01/24 11:29:52;;;;;;;15.83;3.47;;;;;;;;;;5053457;28;20448;-74
2024/01/24 11:32:34;;;;;;;6.20;2.37;;;;;;;;;;5053418;28;20527;-71
2024/01/24 11:35:16;;;;;;;12.73;3.10;;;;;;;;;;5053029;28;20538;-69
2024/01/24 11:37:44;;;;;;;6.70;2.33;;;;;;;;;;5052947;28;20448;-72
2024/01/24 11:40:11;;;;;;;10.70;2.90;;;;;;;;;;5053188;28;21035;-73
2024/01/24 11:42:42;;;;;;;13.57;3.77;;;;;;;;;;5053102;28;20456;-68
2024/01/24 11:45:15;;;;;;;11.40;3.60;;;;;;;;;;5053128;28;20445;-72
2024/01/24 11:47:42;;;;;;;11.07;3.73;;;;;;;;;;5053096;28;20579;-71
2024/01/24 11:50:11;;;;;;;10.87;2.97;;;;;;;;;;5053167;28;20506;-73
2024/01/24 11:52:38;;;;;;;14.77;3.20;;;;;;;;;;5052991;28;20459;-70
2024/01/24 11:55:07;;;;;;;11.87;3.20;;;;;;;;;;5052843;28;20543;-71
2024/01/24 11:57:34;;;;;;;17.00;3.70;;;;;;;;;;5052787;28;21028;-71
2024/01/24 12:00:03;;;;;;;10.50;2.63;;;;;;;;;;5052752;28;21018;-72
2024/01/24 12:02:30;;;;;;;9.63;2.90;;;;;;;;;;5052978;28;20471;-72
2024/01/24 12:04:57;;;;;;;8.20;2.77;;;;;;;;;;5052817;28;20538;-70
2024/01/24 12:07:25;;;;;;;10.00;2.80;;;;;;;;;;5052593;28;20508;-69
2024/01/24 12:09:53;;;;;;;13.63;2.60;;;;;;;;;;5052904;28;20492;-69
2024/01/24 12:12:21;;;;;;;10.23;3.00;;;;;;;;;;5052545;28;20947;-64
2024/01/24 12:14:48;;;;;;;7.43;2.27;;;;;;;;;;5052708;28;20539;-63
2024/01/24 12:17:16;;;;;;;12.30;3.30;;;;;;;;;;5052777;28;20539;-69
2024/01/24 12:19:44;;;;;;;9.70;2.90;;;;;;;;;;5052535;28;20452;-67
2024/01/24 12:22:11;;;;;;;7.63;2.80;;;;;;;;;;5052477;28;20444;-72
2024/01/24 12:24:39;;;;;;;9.57;3.33;;;;;;;;;;5052712;28;20879;-69
2024/01/24 12:27:06;;;;;;;8.37;2.70;;;;;;;;;;5052651;28;20492;-69
2024/01/24 12:29:34;;;;;;;11.87;2.83;;;;;;;;;;5052989;28;20785;-77
2024/01/24 12:32:02;;;;;;;8.37;2.57;;;;;;;;;;5052623;28;20454;-72
2024/01/24 12:34:30;;;;;;;8.80;3.30;;;;;;;;;;5038679;28;20452;-79
2024/01/24 12:36:57;;;;;;;10.43;2.50;;;;;;;;;;5032476;28;20937;-67
2024/01/24 12:39:26;;;;;;;14.50;4.27;;;;;;;;;;5032270;28;20457;-70
2024/01/24 12:41:53;;;;;;;13.23;2.37;;;;;;;;;;5032732;28;20557;-71
2024/01/24 12:44:20;;;;;;;14.67;2.63;;;;;;;;;;5032324;28;20544;-71
2024/01/24 12:46:54;;;;;;;13.70;3.50;;;;;;;;;;5032157;28;20552;-71
2024/01/24 12:49:21;;;;;;;16.87;3.50;;;;;;;;;;5032455;28;20544;-63
2024/01/24 12:51:48;;;;;;;6.93;2.80;;;;;;;;;;5032634;28;20445;-62
2024/01/24 12:54:15;;;;;;;5.83;1.90;;;;;;;;;;5032655;28;20449;-63
2024/01/24 12:56:42;;;;;;;4.47;2.67;;;;;;;;;;5032475;28;20449;-76
2024/01/24 12:59:09;;;;;;;9.67;3.40;;;;;;;;;;5032456;28;20922;-68
2024/01/24 13:01:36;;;;;;;8.77;2.50;;;;;;;;;;5032340;28;20445;-67
2024/01/24 13:04:04;;;;;;;10.60;2.27;;;;;;;;;;5032618;28;20449;-77
2024/01/24 13:06:31;;;;;;;9.70;2.43;;;;;;;;;;5032173;28;20555;-72
2024/01/24 13:08:58;;;;;;;8.33;2.40;;;;;;;;;;5032278;28;20449;-73
2024/01/24 13:11:25;;;;;;;9.27;3.03;;;;;;;;;;5032279;28;20449;-65
2024/01/24 13:13:52;;;;;;;13.13;2.97;;;;;;;;;;5035569;28;20445;-67
2024/01/24 13:16:19;;;;;;;9.67;3.53;;;;;;;;;;5035806;28;20449;-71
2024/01/24 13:18:46;;;;;;;14.40;2.60;;;;;;;;;;5036097;28;20536;-72
2024/01/24 13:21:14;;;;;;;13.33;3.03;;;;;;;;;;5036100;28;20480;-64
2024/01/24 13:23:42;;;;;;;7.53;2.67;;;;;;;;;;5035742;28;20548;-66
2024/01/24 13:26:09;;;;;;;15.37;3.57;;;;;;;;;;5035458;28;20561;-69
2024/01/24 13:28:36;;;;;;;6.53;2.80;;;;;;;;;;5035692;28;20619;-71
2024/01/24 13:31:03;;;;;;;11.80;2.83;;;;;;;;;;5029482;28;20505;-67
2024/01/24 13:33:30;;;;;;;14.60;3.37;;;;;;;;;;5025254;28;20528;-76
2024/01/24 13:35:57;;;;;;;15.20;3.20;;;;;;;;;;5026321;28;20447;-68
2024/01/24 13:38:28;;;;;;;7.07;2.63;;;;;;;;;;5024359;28;20544;-69
2024/01/24 13:40:55;;;;;;;6.90;2.70;;;;;;;;;;5024704;28;20437;-72
2024/01/24 13:43:22;;;;;;;14.23;4.90;;;;;;;;;;5026192;28;20876;-72
2024/01/24 13:45:49;;;;;;;15.83;3.30;;;;;;;;;;5023781;28;20449;-71
2024/01/24 13:48:16;;;;;;;15.10;3.27;;;;;;;;;;5015065;28;20494;-69
2024/01/24 13:50:43;;;;;;;11.60;3.17;;;;;;;;;;5013915;28;20450;-69
2024/01/24 13:53:11;;;;;;;13.17;3.40;;;;;;;;;;5015096;28;20533;-70
2024/01/24 13:55:39;;;;;;;13.90;3.87;;;;;;;;;;5015491;28;20803;-71
2024/01/24 13:58:06;;;;;;;10.20;2.57;;;;;;;;;;5015000;28;20461;-67
2024/01/24 14:00:33;;;;;;;13.73;3.53;;;;;;;;;;5015561;28;20457;-73
2024/01/24 14:03:00;;;;;;;12.37;2.83;;;;;;;;;;5015469;28;20545;-78
2024/01/24 14:05:27;;;;;;;11.70;3.20;;;;;;;;;;5015637;28;20450;-76
2024/01/24 14:07:54;;;;;;;10.80;2.60;;;;;;;;;;5015476;28;20568;-71
2024/01/24 14:10:21;;;;;;;11.60;2.83;;;;;;;;;;5015216;28;20457;-70
2024/01/24 14:12:49;;;;;;;15.47;3.07;;;;;;;;;;5015548;28;20474;-70
2024/01/24 14:15:17;;;;;;;9.07;3.80;;;;;;;;;;5015422;28;20528;-69
2024/01/24 14:17:44;;;;;;;12.33;2.67;;;;;;;;;;5015117;28;20454;-65
2024/01/24 14:20:12;;;;;;;15.50;4.30;;;;;;;;;;5015066;28;20537;-66
2024/01/24 14:22:39;;;;;;;15.07;4.20;;;;;;;;;;5015128;28;20529;-68
2024/01/24 14:25:06;;;;;;;10.37;2.93;;;;;;;;;;5014757;28;20558;-68
2024/01/24 14:27:33;;;;;;;9.23;2.47;;;;;;;;;;5014329;28;20574;-68
2024/01/24 14:30:01;;;;;;;11.03;2.97;;;;;;;;;;5014984;28;20544;-67
2024/01/24 14:32:28;;;;;;;11.50;3.07;;;;;;;;;;5014861;28;21029;-67
2024/01/24 14:34:55;;;;;;;12.90;2.83;;;;;;;;;;5014919;28;20796;-67
2024/01/24 14:37:24;;;;;;;8.63;2.50;;;;;;;;;;5014753;28;20990;-67
2024/01/24 14:39:51;;;;;;;12.23;3.00;;;;;;;;;;5014714;28;20448;-67
2024/01/24 14:42:18;;;;;;;11.33;3.03;;;;;;;;;;5014755;28;20533;-67